Ascutney, Vermont
Current Conditions -  °F | °C
As of 11:54 PM on Wednesday 22 Oct 2014 (Local Time) from KVSF Reporting Station
Light Rain Light Rain  
Wind Chill: 45°   Ceiling: 2100
Heat Index: 49°   Visibility: 10mi
Dew Point: 44°   Wind: 9mph
Humidity: 83%   Direction: 10°N
Pressure: 29.94"   Gusts: NA
Location:  43.41°N, 72.41°W
Report Text: KVSF 230354Z AUTO 01008KT 340V040 10SM -RA OVC021 09/07 A2994 RMK AO2 SLP142 P0000 T00940067
Loading
Personal Weather Stations






























Interactive Weather Map
Tropical Storm Tracking
New forecast layout! Learn more

10-Day Weather Forecast

Advertisements
Track Severe Weather on mobile